createdAt,value
2019-02-14T00:02:51.876Z,1.40
2019-02-14T00:04:35.686Z,1.00
2019-02-14T00:07:02.137Z,1.00
2019-02-14T00:12:52.614Z,1.00
2019-02-14T00:19:46.689Z,3.00
2019-02-14T00:20:48.347Z,1.00
2019-02-14T00:23:14.869Z,3.60
2019-02-14T00:27:11.709Z,2.60
2019-02-14T00:29:37.784Z,3.00
2019-02-14T00:39:55.425Z,0.80
2019-02-14T00:46:10.216Z,1.00
2019-02-14T00:48:06.318Z,1.00
2019-02-14T00:53:49.429Z,2.20
2019-02-14T00:56:04.074Z,1.00
2019-02-14T01:08:25.320Z,1.00
2019-02-14T01:10:51.373Z,1.00
2019-02-14T01:14:24.469Z,0.80
2019-02-14T01:16:11.501Z,0.60
2019-02-14T01:18:40.155Z,1.40
2019-02-14T01:22:34.887Z,1.40
2019-02-14T01:24:10.196Z,1.00
2019-02-14T01:36:42.300Z,3.00
2019-02-14T01:38:35.304Z,3.00
2019-02-14T01:45:43.846Z,0.60
2019-02-14T01:46:31.747Z,0.00
2019-02-14T01:48:09.970Z,0.80
2019-02-14T01:50:38.857Z,1.80
2019-02-14T02:04:31.606Z,1.00
2019-02-14T02:06:59.995Z,1.00
2019-02-14T02:08:37.289Z,1.00
2019-02-14T02:10:52.398Z,3.00
2019-02-14T02:14:38.655Z,1.80
2019-02-14T02:18:33.618Z,3.00
2019-02-14T02:26:44.774Z,1.40
2019-02-14T02:28:19.928Z,1.00
2019-02-14T02:30:26.594Z,3.00
2019-02-14T02:32:02.111Z,2.60
2019-02-14T02:34:16.641Z,3.00
2019-02-14T02:38:00.318Z,0.60
2019-02-14T02:40:28.680Z,0.80
2019-02-14T02:43:58.461Z,2.60
2019-02-14T02:45:47.371Z,1.00
2019-02-14T02:48:04.481Z,1.00
2019-02-14T02:52:09.499Z,0.00
2019-02-14T02:56:04.675Z,0.00
2019-02-14T03:00:15.315Z,1.00
2019-02-14T03:01:50.457Z,0.00
2019-02-14T03:04:17.101Z,1.00
2019-02-14T03:14:07.758Z,0.40
2019-02-14T03:16:22.117Z,0.40
2019-02-14T03:18:50.109Z,0.20
2019-02-14T03:24:09.756Z,0.00
2019-02-14T03:25:56.442Z,0.00
2019-02-14T03:27:43.555Z,0.60
2019-02-14T03:29:47.883Z,0.80
2019-02-14T03:31:54.980Z,0.40
2019-02-14T03:37:56.140Z,1.00
2019-02-14T03:39:42.643Z,0.00
2019-02-14T03:45:44.314Z,0.00
2019-02-14T03:47:39.388Z,1.80
2019-02-14T03:49:14.642Z,0.60
2019-02-14T03:51:43.378Z,0.80
2019-02-14T03:53:19.690Z,1.80
2019-02-14T03:55:34.218Z,1.80
2019-02-14T04:03:54.118Z,1.00
2019-02-14T04:16:09.352Z,0.00
2019-02-14T04:19:58.768Z,2.20
2019-02-14T04:21:34.381Z,1.00
2019-02-14T04:23:49.012Z,1.00
2019-02-14T04:25:24.291Z,1.00
2019-02-14T04:26:59.672Z,0.00
2019-02-14T04:28:36.373Z,1.00
2019-02-14T04:30:31.212Z,1.00
2019-02-14T04:32:18.301Z,1.40
2019-02-14T04:36:21.855Z,0.80
2019-02-14T04:37:47.206Z,2.60
2019-02-14T04:41:59.053Z,4.80
2019-02-14T04:47:59.838Z,3.80
2019-02-14T04:49:46.256Z,2.20
2019-02-14T04:51:33.172Z,3.20
2019-02-14T04:53:40.173Z,1.80
2019-02-14T04:59:51.893Z,1.00
2019-02-14T05:04:00.442Z,1.00
2019-02-14T05:09:42.159Z,2.20
2019-02-14T05:11:17.843Z,3.00
2019-02-14T05:12:52.941Z,0.00
2019-02-14T05:14:28.197Z,2.60
2019-02-14T05:16:22.471Z,1.00
2019-02-14T05:20:17.593Z,1.40
2019-02-14T05:21:53.509Z,0.80
2019-02-14T05:27:54.568Z,1.00
2019-02-14T05:29:30.155Z,1.40
2019-02-14T05:33:19.024Z,3.00
2019-02-14T05:37:59.328Z,1.00
2019-02-14T05:45:25.695Z,2.20
2019-02-14T05:57:23.856Z,1.40
2019-02-14T05:58:59.444Z,1.40
2019-02-14T06:03:19.266Z,0.00
2019-02-14T06:05:48.064Z,0.00
2019-02-14T06:07:14.638Z,0.00
2019-02-14T06:08:50.924Z,0.60
2019-02-14T06:10:26.073Z,0.20
2019-02-14T06:12:02.884Z,1.00
2019-02-14T06:13:40.011Z,1.00
2019-02-14T06:15:27.156Z,0.20
2019-02-14T06:17:16.991Z,1.40
2019-02-14T06:21:20.492Z,1.00
2019-02-14T06:30:01.053Z,1.00
2019-02-14T06:33:38.851Z,1.80
2019-02-14T06:39:47.729Z,2.60
2019-02-14T06:41:26.595Z,3.00
2019-02-14T06:43:02.817Z,2.20
2019-02-14T06:44:38.342Z,2.60
2019-02-14T06:46:19.068Z,3.00
2019-02-14T06:47:58.668Z,3.00
2019-02-14T06:52:02.046Z,0.80
2019-02-14T06:54:18.218Z,1.00
2019-02-14T06:55:55.438Z,2.20
2019-02-14T06:57:33.349Z,1.40
2019-02-14T06:59:08.811Z,3.00
2019-02-14T07:06:32.506Z,3.00
2019-02-14T07:10:32.267Z,1.00
2019-02-14T07:12:26.678Z,1.40
2019-02-14T07:14:55.375Z,1.80
2019-02-14T07:21:02.991Z,1.80
2019-02-14T07:22:42.077Z,0.00
2019-02-14T07:24:17.300Z,2.20
2019-02-14T07:25:52.528Z,0.60
2019-02-14T07:27:28.221Z,0.80
2019-02-14T07:29:03.791Z,1.80
2019-02-14T07:31:18.238Z,0.00
2019-02-14T07:33:24.091Z,0.00
2019-02-14T07:35:17.222Z,0.00
2019-02-14T07:36:52.562Z,1.00
2019-02-14T07:38:27.641Z,1.00
2019-02-14T07:40:06.662Z,2.20
2019-02-14T07:41:41.959Z,2.20
2019-02-14T07:43:17.500Z,1.00
2019-02-14T07:44:55.122Z,1.00
2019-02-14T07:50:57.481Z,1.00
2019-02-14T07:56:30.352Z,1.00
2019-02-14T07:58:15.128Z,3.80
2019-02-14T07:59:50.403Z,3.00
2019-02-14T08:02:04.803Z,3.80
2019-02-14T08:06:02.522Z,1.00
2019-02-14T08:10:10.585Z,3.40
2019-02-14T08:14:30.707Z,2.20
2019-02-14T08:16:08.390Z,1.00
2019-02-14T08:20:22.496Z,1.00
2019-02-14T08:26:01.274Z,3.00
2019-02-14T08:27:36.728Z,1.40
2019-02-14T08:29:12.945Z,1.00
2019-02-14T08:30:48.847Z,3.00
2019-02-14T08:32:25.260Z,3.00
2019-02-14T08:34:02.392Z,4.00
2019-02-14T08:35:48.679Z,1.00
2019-02-14T08:37:54.176Z,1.00
2019-02-14T08:39:35.864Z,2.20
2019-02-14T08:41:13.437Z,3.00
2019-02-14T08:42:50.242Z,0.60
2019-02-14T08:44:28.203Z,1.00
2019-02-14T08:46:22.586Z,1.00
2019-02-14T08:48:01.330Z,3.00
2019-02-14T08:49:39.833Z,2.60
2019-02-14T08:51:16.233Z,1.00
2019-02-14T08:52:53.049Z,1.00
2019-02-14T08:54:30.309Z,3.00
2019-02-14T08:56:09.218Z,3.00
2019-02-14T08:57:47.481Z,1.00
2019-02-14T08:59:23.080Z,3.00
2019-02-14T09:01:17.815Z,1.00
2019-02-14T09:07:25.938Z,3.00
2019-02-14T09:14:52.773Z,4.00
2019-02-14T09:21:28.162Z,3.40
2019-02-14T09:25:23.187Z,3.00
2019-02-14T09:27:00.903Z,3.00
2019-02-14T09:31:13.210Z,3.20
2019-02-14T09:41:06.805Z,1.80
2019-02-14T09:43:01.440Z,3.60
2019-02-14T09:44:36.960Z,4.00
2019-02-14T09:46:51.485Z,3.40
2019-02-14T09:48:39.361Z,3.80
2019-02-14T09:50:26.990Z,1.00
2019-02-14T09:52:15.126Z,2.20
2019-02-14T10:02:37.250Z,3.00
2019-02-14T10:04:12.469Z,3.00
2019-02-14T10:05:55.392Z,1.40
2019-02-14T10:07:49.746Z,3.00
2019-02-14T10:14:26.969Z,1.00
2019-02-14T10:16:27.514Z,3.40
2019-02-14T10:18:14.229Z,4.00
2019-02-14T10:20:01.845Z,1.00
2019-02-14T10:21:37.818Z,3.00
2019-02-14T10:23:18.117Z,3.40
2019-02-14T10:24:57.417Z,3.00
2019-02-14T10:26:35.626Z,3.60
2019-02-14T10:28:14.419Z,3.80
2019-02-14T10:29:52.944Z,3.00
2019-02-14T10:31:30.043Z,2.20
2019-02-14T10:35:43.352Z,2.60
2019-02-14T10:41:26.206Z,2.20
2019-02-14T10:45:14.176Z,3.40
2019-02-14T10:48:45.983Z,3.00
2019-02-14T10:51:02.143Z,1.00
2019-02-14T10:52:50.919Z,0.00
2019-02-14T10:54:48.904Z,3.00
2019-02-14T10:56:36.551Z,2.60
2019-02-14T10:58:31.199Z,1.40
2019-02-14T11:00:21.755Z,3.00
2019-02-14T11:09:00.139Z,3.00
2019-02-14T11:10:39.975Z,3.20
2019-02-14T11:16:35.248Z,4.00
2019-02-14T11:18:28.534Z,2.60
2019-02-14T11:20:07.894Z,1.40
2019-02-14T11:22:01.953Z,2.80
2019-02-14T11:23:40.721Z,2.60
2019-02-14T11:25:22.169Z,1.00
2019-02-14T11:26:58.833Z,1.40
2019-02-14T11:28:34.060Z,1.80
2019-02-14T11:30:51.524Z,1.00
2019-02-14T11:32:41.208Z,1.00
2019-02-14T11:36:30.925Z,1.00
2019-02-14T11:38:08.638Z,1.00
2019-02-14T11:39:52.406Z,1.00
2019-02-14T11:41:35.439Z,1.20
2019-02-14T11:43:11.162Z,1.00
2019-02-14T11:45:02.594Z,1.00
2019-02-14T11:49:02.170Z,1.40
2019-02-14T11:55:11.460Z,1.80
2019-02-14T11:55:19.384Z,1.00
2019-02-14T11:57:00.205Z,1.00
2019-02-14T11:59:15.715Z,2.00
2019-02-14T12:03:22.399Z,0.00
2019-02-14T12:05:11.780Z,2.00
2019-02-14T12:17:23.418Z,2.80
2019-02-14T12:19:02.422Z,0.80
2019-02-14T12:20:49.271Z,2.40
2019-02-14T12:25:08.614Z,1.80
2019-02-14T12:27:04.538Z,1.00
2019-02-14T12:33:09.255Z,1.00
2019-02-14T12:38:58.766Z,1.00
2019-02-14T12:40:45.887Z,0.00
2019-02-14T12:45:01.131Z,1.00
2019-02-14T12:52:40.286Z,0.00
2019-02-14T12:54:19.565Z,0.00
2019-02-14T12:55:57.769Z,0.60
2019-02-14T12:57:32.989Z,0.00
2019-02-14T12:59:10.431Z,0.00
2019-02-14T13:01:19.533Z,0.00
2019-02-14T13:02:53.598Z,0.00
2019-02-14T13:04:32.770Z,1.00
2019-02-14T13:06:12.059Z,0.00
2019-02-14T13:08:15.314Z,0.80
2019-02-14T13:09:50.832Z,0.80
2019-02-14T13:13:57.390Z,0.20
2019-02-14T13:15:45.771Z,0.00
2019-02-14T13:22:15.443Z,0.00
2019-02-14T13:23:57.868Z,0.00
2019-02-14T13:25:45.675Z,0.00
2019-02-14T13:27:25.363Z,0.60
2019-02-14T13:29:02.785Z,0.00
2019-02-14T13:31:18.963Z,0.00
2019-02-14T13:32:56.836Z,0.00
2019-02-14T13:34:33.931Z,1.00
2019-02-14T13:36:11.745Z,1.00
2019-02-14T13:37:48.567Z,0.00
2019-02-14T13:39:29.490Z,0.00
2019-02-14T13:41:01.444Z,51.80
2019-02-14T13:42:37.269Z,0.40
2019-02-14T13:44:16.122Z,1.00
2019-02-14T13:46:04.052Z,1.00
2019-02-14T13:47:43.689Z,0.00
2019-02-14T13:49:23.444Z,0.20
2019-02-14T13:51:29.799Z,0.40
2019-02-14T13:55:32.831Z,0.00
2019-02-14T13:57:08.814Z,0.00
2019-02-14T13:58:53.749Z,0.00
2019-02-14T14:00:30.758Z,0.20
2019-02-14T14:02:09.197Z,0.00
2019-02-14T14:03:45.455Z,0.00
2019-02-14T14:05:25.825Z,0.40
2019-02-14T14:07:03.435Z,0.00
2019-02-14T14:10:51.065Z,0.00
2019-02-14T14:13:04.721Z,0.00
2019-02-14T14:15:20.414Z,0.00
2019-02-14T14:17:15.136Z,0.60
2019-02-14T14:19:06.583Z,0.00
2019-02-14T14:28:02.591Z,0.60
2019-02-14T14:29:44.469Z,1.00
2019-02-14T14:31:42.511Z,0.00
2019-02-14T14:35:47.896Z,0.00
2019-02-14T14:37:47.788Z,0.00
2019-02-14T14:39:47.911Z,0.00
2019-02-14T14:45:56.028Z,0.00
2019-02-14T14:47:34.865Z,-0.20
2019-02-14T14:49:12.445Z,1.00
2019-02-14T14:50:47.985Z,0.00
2019-02-14T14:52:25.559Z,0.00
2019-02-14T14:54:02.589Z,0.00
2019-02-14T14:55:41.509Z,0.00
2019-02-14T14:57:17.219Z,0.00
2019-02-14T14:58:59.924Z,0.00
2019-02-14T15:02:50.429Z,0.00
2019-02-14T15:04:27.118Z,0.00
2019-02-14T15:06:09.271Z,0.00
2019-02-14T15:08:06.413Z,0.00
2019-02-14T15:10:21.002Z,0.00
2019-02-14T15:12:15.369Z,1.00
2019-02-14T15:16:07.960Z,0.00
2019-02-14T15:17:43.293Z,0.00
2019-02-14T15:21:57.080Z,0.00
2019-02-14T15:25:43.250Z,0.00
2019-02-14T15:27:18.934Z,0.00
2019-02-14T15:29:33.674Z,2.80
2019-02-14T15:31:29.038Z,1.00
2019-02-14T15:38:25.269Z,2.60
2019-02-14T15:42:40.892Z,13.00
2019-02-14T15:44:28.448Z,7.80
2019-02-14T15:46:22.813Z,6.00
2019-02-14T15:54:41.861Z,13.00
2019-02-14T16:04:21.211Z,6.00
2019-02-14T16:06:06.097Z,3.00
2019-02-14T16:07:47.159Z,4.40
2019-02-14T16:09:25.829Z,4.00
2019-02-14T16:11:06.383Z,3.00
2019-02-14T16:12:45.939Z,3.60
2019-02-14T16:14:23.705Z,1.00
2019-02-14T16:15:59.029Z,1.00
2019-02-14T16:17:37.465Z,0.00
2019-02-14T16:19:13.127Z,3.00
2019-02-14T16:20:51.884Z,0.60
2019-02-14T16:22:30.034Z,1.00
2019-02-14T16:24:09.017Z,4.00
2019-02-14T16:26:01.089Z,0.80
2019-02-14T16:27:42.385Z,3.00
2019-02-14T16:29:20.262Z,4.00
2019-02-14T16:31:19.896Z,4.40
2019-02-14T16:33:06.028Z,3.00
2019-02-14T16:34:48.144Z,1.40
2019-02-14T16:36:27.397Z,3.80
2019-02-14T16:38:10.164Z,5.20
2019-02-14T16:40:06.817Z,4.00
2019-02-14T16:41:51.396Z,3.40
2019-02-14T16:43:33.222Z,3.20
2019-02-14T16:45:17.176Z,5.60
2019-02-14T16:46:58.760Z,5.60
2019-02-14T16:48:49.033Z,3.80
2019-02-14T16:50:34.723Z,3.20
2019-02-14T16:52:12.238Z,3.00
2019-02-14T16:53:48.514Z,3.80
2019-02-14T16:55:33.459Z,3.40
2019-02-14T16:57:11.339Z,3.20
2019-02-14T16:58:57.989Z,10.00
2019-02-14T17:00:39.554Z,6.60
2019-02-14T17:02:28.266Z,7.00
2019-02-14T17:04:07.913Z,6.80
2019-02-14T17:05:46.224Z,5.20
2019-02-14T17:07:30.653Z,6.00
2019-02-14T17:09:07.386Z,9.00
2019-02-14T17:11:01.506Z,5.20
2019-02-14T17:12:45.798Z,7.00
2019-02-14T17:14:23.083Z,6.20
2019-02-14T17:16:14.890Z,7.20
2019-02-14T17:17:59.132Z,7.40
2019-02-14T17:19:49.448Z,9.40
2019-02-14T17:21:25.403Z,6.00
2019-02-14T17:23:05.261Z,6.00
2019-02-14T17:24:41.154Z,5.60
2019-02-14T17:26:25.300Z,6.00
2019-02-14T17:27:57.745Z,3.60
2019-02-14T17:29:35.269Z,4.00
2019-02-14T17:31:10.934Z,3.00
2019-02-14T17:32:46.752Z,5.20
2019-02-14T17:34:23.774Z,9.60
2019-02-14T17:36:03.266Z,7.80
2019-02-14T17:37:42.254Z,9.40
2019-02-14T17:39:27.231Z,7.80
2019-02-14T17:41:08.118Z,9.00
2019-02-14T17:42:45.761Z,10.00
2019-02-14T17:44:21.820Z,7.00
2019-02-14T17:46:18.518Z,10.00
2019-02-14T17:48:02.798Z,8.60
2019-02-14T17:49:41.455Z,8.60
2019-02-14T17:51:23.061Z,7.00
2019-02-14T17:52:58.908Z,6.80
2019-02-14T17:54:34.751Z,9.80
2019-02-14T17:56:13.166Z,6.20
2019-02-14T17:57:49.609Z,7.40
2019-02-14T17:59:33.513Z,3.00
2019-02-14T18:01:16.787Z,3.00
2019-02-14T18:02:54.306Z,4.00
2019-02-14T18:04:32.243Z,6.00
2019-02-14T18:06:13.822Z,7.00
2019-02-14T18:07:53.285Z,9.60
2019-02-14T18:09:28.450Z,6.00
2019-02-14T18:11:04.970Z,7.20
2019-02-14T18:12:42.064Z,7.80
2019-02-14T18:14:21.339Z,10.80
2019-02-14T18:16:19.614Z,7.60
2019-02-14T18:18:18.608Z,4.40
2019-02-14T18:20:09.046Z,5.00
2019-02-14T18:21:46.643Z,2.20
2019-02-14T18:23:34.230Z,6.40
2019-02-14T18:25:22.732Z,6.00
2019-02-14T18:27:04.012Z,4.40
2019-02-14T18:28:48.168Z,3.80
2019-02-14T18:30:33.264Z,2.20
2019-02-14T18:32:11.188Z,0.00
2019-02-14T18:33:59.042Z,1.00
2019-02-14T18:35:36.034Z,3.00
2019-02-14T18:37:27.857Z,4.00
2019-02-14T18:39:12.823Z,12.00
2019-02-14T18:40:53.245Z,10.00
2019-02-14T18:42:30.267Z,6.80
2019-02-14T18:44:12.406Z,4.20
2019-02-14T18:45:50.818Z,5.40
2019-02-14T18:47:39.769Z,5.00
2019-02-14T18:49:11.908Z,3.60
2019-02-14T18:50:55.971Z,7.60
2019-02-14T18:52:42.280Z,4.20
2019-02-14T18:54:24.218Z,11.20
2019-02-14T18:56:03.895Z,11.40
2019-02-14T18:57:43.451Z,16.40
2019-02-14T18:59:30.006Z,13.80
2019-02-14T19:01:10.541Z,21.20
2019-02-14T19:02:49.306Z,30.00
2019-02-14T19:04:39.240Z,26.40
2019-02-14T19:06:19.089Z,16.00
2019-02-14T19:14:09.388Z,23.20
2019-02-14T19:16:09.311Z,20.60
2019-02-14T19:18:01.725Z,20.20
2019-02-14T19:20:00.972Z,27.80
2019-02-14T19:21:48.794Z,19.00
2019-02-14T19:23:44.769Z,14.40
2019-02-14T19:28:02.747Z,15.00
2019-02-14T19:29:58.175Z,14.80
2019-02-14T19:31:54.995Z,13.40
2019-02-14T19:33:30.934Z,18.20
2019-02-14T19:41:25.250Z,8.80
2019-02-14T19:49:49.459Z,20.80
2019-02-14T19:51:52.098Z,41.20
2019-02-14T19:53:41.579Z,26.40
2019-02-14T19:57:34.557Z,15.60
2019-02-14T20:01:25.977Z,1.40
2019-02-14T20:10:55.792Z,0.00
2019-02-14T20:17:09.856Z,18.20
2019-02-14T20:18:50.234Z,21.20
2019-02-14T20:22:48.371Z,10.40
2019-02-14T20:28:51.642Z,6.80
2019-02-14T20:33:04.815Z,15.20
2019-02-14T20:34:50.296Z,13.60
2019-02-14T20:36:29.422Z,13.00
2019-02-14T20:38:13.636Z,21.00
2019-02-14T20:39:49.548Z,24.00
2019-02-14T20:41:30.737Z,7.00
2019-02-14T20:43:05.237Z,8.80
2019-02-14T20:44:42.049Z,7.40
2019-02-14T20:46:22.312Z,5.80
2019-02-14T20:48:01.520Z,4.00
2019-02-14T20:49:37.648Z,0.00
2019-02-14T20:52:09.455Z,0.60
2019-02-14T20:55:55.371Z,2.20
2019-02-14T20:57:31.503Z,3.00
2019-02-14T20:59:13.115Z,0.00
2019-02-14T21:00:49.376Z,2.20
2019-02-14T21:02:31.046Z,0.20
2019-02-14T21:04:09.340Z,1.00
2019-02-14T21:05:46.983Z,1.00
2019-02-14T21:07:26.995Z,2.60
2019-02-14T21:09:07.768Z,3.00
2019-02-14T21:10:52.703Z,2.20
2019-02-14T21:12:35.642Z,3.00
2019-02-14T21:14:11.400Z,4.00
2019-02-14T21:15:53.781Z,3.00
2019-02-14T21:17:36.795Z,3.80
2019-02-14T21:19:17.188Z,2.20
2019-02-14T21:20:58.750Z,0.80
2019-02-14T21:22:43.040Z,3.00
2019-02-14T21:24:20.657Z,1.00
2019-02-14T21:26:20.154Z,1.00
2019-02-14T21:32:50.410Z,4.00
2019-02-14T21:37:06.422Z,7.20
2019-02-14T21:39:05.874Z,7.80
2019-02-14T21:40:24.193Z,2.80
2019-02-14T21:42:18.580Z,1.80
2019-02-14T21:43:49.436Z,2.60
2019-02-14T21:45:26.413Z,0.00
2019-02-14T21:47:03.826Z,3.80
2019-02-14T21:48:44.827Z,1.80
2019-02-14T21:50:21.782Z,2.20
2019-02-14T21:52:01.490Z,1.80
2019-02-14T21:53:40.049Z,0.20
2019-02-14T21:55:24.196Z,0.40
2019-02-14T21:57:10.208Z,1.00
2019-02-14T21:58:46.706Z,1.00
2019-02-14T22:00:28.767Z,1.00
2019-02-14T22:02:09.378Z,1.00
2019-02-14T22:03:49.819Z,2.20
2019-02-14T22:05:27.032Z,1.40
2019-02-14T22:07:07.945Z,1.80
2019-02-14T22:08:45.516Z,1.80
2019-02-14T22:10:22.020Z,2.20
2019-02-14T22:13:44.548Z,2.20
2019-02-14T22:15:21.144Z,1.80
2019-02-14T22:16:57.382Z,2.60
2019-02-14T22:18:32.943Z,3.00
2019-02-14T22:20:08.680Z,1.80
2019-02-14T22:21:51.196Z,1.40
2019-02-14T22:23:27.042Z,0.00
2019-02-14T22:25:05.264Z,0.00
2019-02-14T22:26:46.299Z,0.80
2019-02-14T22:34:17.433Z,0.00
2019-02-14T22:36:12.393Z,1.40
2019-02-14T22:37:48.718Z,0.00
2019-02-14T22:39:26.355Z,0.00
2019-02-14T22:41:04.245Z,1.00
2019-02-14T22:42:46.582Z,1.00
2019-02-14T22:44:16.934Z,1.00
2019-02-14T22:45:52.639Z,0.00
2019-02-14T22:47:28.136Z,0.80
2019-02-14T22:49:08.350Z,0.00
2019-02-14T22:50:47.088Z,0.00
2019-02-14T22:52:23.412Z,0.00
2019-02-14T22:54:00.844Z,2.20
2019-02-14T22:55:45.434Z,1.00
2019-02-14T22:57:24.169Z,0.00
2019-02-14T22:59:00.141Z,0.00
2019-02-14T23:04:49.777Z,1.00
2019-02-14T23:06:46.639Z,0.00
2019-02-14T23:09:17.131Z,1.00
2019-02-14T23:21:09.969Z,2.60
2019-02-14T23:29:24.051Z,1.40
2019-02-14T23:31:11.777Z,0.80
2019-02-14T23:37:07.407Z,3.60
2019-02-14T23:38:45.223Z,1.80
2019-02-14T23:40:22.318Z,0.00
2019-02-14T23:42:16.793Z,2.60
2019-02-14T23:48:08.208Z,0.60
2019-02-14T23:52:02.228Z,0.00
2019-02-14T23:57:57.979Z,0.40
2019-02-14T23:59:35.376Z,1.00
